createdAt,value
2019-05-13T00:01:54.055Z,103226.03
2019-05-13T00:04:24.439Z,103221.88
2019-05-13T00:06:57.717Z,103224.19
2019-05-13T00:09:28.386Z,103224.19
2019-05-13T00:11:58.781Z,103236.96
2019-05-13T00:14:29.327Z,103237.84
2019-05-13T00:16:59.503Z,103227.94
2019-05-13T00:19:29.336Z,103237.75
2019-05-13T00:21:59.507Z,103239.22
2019-05-13T00:24:29.735Z,103237.72
2019-05-13T00:27:07.678Z,103237.72
2019-05-13T00:29:38.095Z,103241.91
2019-05-13T00:32:07.962Z,103239.28
2019-05-13T00:34:37.610Z,103243.20
2019-05-13T00:37:11.575Z,103252.38
2019-05-13T00:39:39.928Z,103252.38
2019-05-13T00:42:10.774Z,103245.17
2019-05-13T00:44:41.018Z,103255.01
2019-05-13T00:47:13.135Z,103276.11
2019-05-13T00:49:43.725Z,103277.55
2019-05-13T00:52:14.312Z,103268.69
2019-05-13T00:54:44.692Z,103269.67
2019-05-13T00:57:14.422Z,103269.67
2019-05-13T00:59:44.439Z,103280.47
2019-05-13T01:02:16.877Z,103280.47
2019-05-13T01:04:48.087Z,103272.92
2019-05-13T01:07:25.851Z,103272.92
2019-05-13T01:09:50.076Z,103290.44
2019-05-13T01:12:20.599Z,103282.93
2019-05-13T01:14:50.755Z,103282.93
2019-05-13T01:17:20.486Z,103271.33
2019-05-13T01:19:57.322Z,103283.10
2019-05-13T01:22:27.511Z,103285.56
2019-05-13T01:24:57.653Z,103279.03
2019-05-13T01:27:27.536Z,103282.48
2019-05-13T01:29:57.045Z,103278.63
2019-05-13T01:32:27.599Z,103284.94
2019-05-13T01:34:58.655Z,103281.36
2019-05-13T01:37:39.941Z,103294.44
2019-05-13T01:40:00.578Z,103291.89
2019-05-13T01:42:30.646Z,103291.42
2019-05-13T01:45:00.577Z,103294.94
2019-05-13T01:47:34.541Z,103293.47
2019-05-13T01:50:06.775Z,103294.84
2019-05-13T01:52:36.776Z,103300.47
2019-05-13T01:55:08.190Z,103298.86
2019-05-13T01:57:39.812Z,103296.98
2019-05-13T02:00:10.360Z,103303.93
2019-05-13T02:02:40.589Z,103302.32
2019-05-13T02:05:10.956Z,103304.94
2019-05-13T02:07:54.509Z,103304.94
2019-05-13T02:10:14.599Z,103310.30
2019-05-13T02:12:44.969Z,103310.30
2019-05-13T02:15:19.615Z,103301.17
2019-05-13T02:17:49.487Z,103301.17
2019-05-13T02:20:19.546Z,103292.25
2019-05-13T02:22:49.327Z,103293.80
2019-05-13T02:25:20.238Z,103289.14
2019-05-13T02:27:50.682Z,103301.17
2019-05-13T02:30:20.603Z,103303.11
2019-05-13T02:32:53.131Z,103303.11
2019-05-13T02:35:23.239Z,103298.38
2019-05-13T02:37:53.379Z,103289.89
2019-05-13T02:40:23.442Z,103295.92
2019-05-13T02:42:54.010Z,103295.92
2019-05-13T02:45:23.746Z,103302.16
2019-05-13T02:47:53.812Z,103305.08
2019-05-13T02:50:23.730Z,103304.50
2019-05-13T02:52:54.702Z,103298.53
2019-05-13T02:55:25.036Z,103304.09
2019-05-13T02:57:57.431Z,103295.13
2019-05-13T03:00:27.476Z,103295.13
2019-05-13T03:02:57.407Z,103298.70
2019-05-13T03:05:27.223Z,103298.70
2019-05-13T03:07:57.135Z,103290.63
2019-05-13T03:10:28.287Z,103296.25
2019-05-13T03:12:58.658Z,103299.86
2019-05-13T03:15:32.774Z,103299.84
2019-05-13T03:18:06.528Z,103305.70
2019-05-13T03:20:38.481Z,103310.59
2019-05-13T03:23:08.728Z,103310.59
2019-05-13T03:25:39.084Z,103305.53
2019-05-13T03:28:13.508Z,103314.17
2019-05-13T03:30:45.886Z,103314.17
2019-05-13T03:33:19.460Z,103317.12
2019-05-13T03:35:47.586Z,103321.55
2019-05-13T03:38:17.837Z,103322.20
2019-05-13T03:40:52.453Z,103318.45
2019-05-13T03:43:23.174Z,103316.17
2019-05-13T03:45:55.188Z,103322.70
2019-05-13T03:48:25.804Z,103311.74
2019-05-13T03:50:56.613Z,103323.17
2019-05-13T03:53:26.482Z,103320.06
2019-05-13T03:55:58.008Z,103317.12
2019-05-13T03:58:28.246Z,103316.80
2019-05-13T04:00:58.046Z,103321.03
2019-05-13T04:03:28.175Z,103334.25
2019-05-13T04:05:58.542Z,103332.05
2019-05-13T04:08:28.407Z,103329.94
2019-05-13T04:11:02.905Z,103329.94
2019-05-13T04:13:33.409Z,103332.88
2019-05-13T04:16:04.523Z,103337.92
2019-05-13T04:18:34.783Z,103345.83
2019-05-13T04:21:05.025Z,103353.92
2019-05-13T04:23:34.951Z,103358.89
2019-05-13T04:26:05.691Z,103361.72
2019-05-13T04:28:37.480Z,103370.25
2019-05-13T04:31:07.657Z,103360.41
2019-05-13T04:33:42.624Z,103363.83
2019-05-13T04:36:14.170Z,103363.83
2019-05-13T04:38:45.039Z,103364.89
2019-05-13T04:41:15.052Z,103359.99
2019-05-13T04:43:45.438Z,103372.27
2019-05-13T04:46:14.928Z,103375.70
2019-05-13T04:48:44.888Z,103375.45
2019-05-13T04:51:15.487Z,103387.39
2019-05-13T04:53:45.099Z,103387.39
2019-05-13T04:56:16.334Z,103381.25
2019-05-13T04:58:46.400Z,103379.84
2019-05-13T05:01:48.862Z,103389.16
2019-05-13T05:04:34.996Z,103389.16
2019-05-13T05:07:22.279Z,103388.87
2019-05-13T05:10:30.494Z,103386.25
2019-05-13T05:13:23.575Z,103386.25
2019-05-13T05:16:32.604Z,103391.66
2019-05-13T05:19:32.036Z,103259.80
2019-05-13T05:22:24.073Z,103259.80
2019-05-13T05:25:21.949Z,103394.95
2019-05-13T05:28:37.393Z,103402.86
2019-05-13T05:31:35.176Z,103399.29
2019-05-13T05:34:34.507Z,103403.88
2019-05-13T05:37:27.117Z,103397.50
2019-05-13T05:39:58.536Z,103405.17
2019-05-13T05:42:32.316Z,103406.20
2019-05-13T05:45:06.047Z,103407.11
2019-05-13T05:47:38.331Z,103401.67
2019-05-13T05:50:08.675Z,103394.62
2019-05-13T05:52:42.336Z,103405.16
2019-05-13T05:55:12.841Z,103398.95
2019-05-13T05:57:46.656Z,103405.05
2019-05-13T06:00:18.682Z,103410.28
2019-05-13T06:02:53.223Z,103400.39
2019-05-13T06:05:24.668Z,103405.48
2019-05-13T06:07:55.347Z,103403.55
2019-05-13T06:10:25.419Z,103410.66
2019-05-13T06:12:56.217Z,103376.80
2019-05-13T06:15:26.553Z,103414.34
2019-05-13T06:17:56.695Z,103412.50
2019-05-13T06:20:28.347Z,103413.19
2019-05-13T06:22:58.525Z,103419.58
2019-05-13T06:25:28.574Z,103418.93
2019-05-13T06:27:58.668Z,103414.38
2019-05-13T06:30:29.119Z,103415.58
2019-05-13T06:33:01.480Z,103420.83
2019-05-13T06:35:32.285Z,103418.86
2019-05-13T06:38:03.186Z,103418.86
2019-05-13T06:40:33.459Z,103421.88
2019-05-13T06:43:03.467Z,103421.88
2019-05-13T06:45:33.970Z,103413.06
2019-05-13T06:48:04.116Z,103418.61
2019-05-13T06:50:35.631Z,103420.69
2019-05-13T06:53:08.387Z,103412.00
2019-05-13T06:55:38.175Z,103412.00
2019-05-13T06:58:08.269Z,103418.30
2019-05-13T07:00:38.530Z,103416.00
2019-05-13T07:03:08.485Z,103416.00
2019-05-13T07:05:42.372Z,103416.81
2019-05-13T07:08:12.722Z,103416.81
2019-05-13T07:10:42.429Z,103417.62
2019-05-13T07:13:12.413Z,103417.62
2019-05-13T07:15:42.506Z,103425.45
2019-05-13T07:18:12.264Z,103426.69
2019-05-13T07:20:42.874Z,103413.02
2019-05-13T07:23:14.311Z,103417.28
2019-05-13T07:25:44.495Z,103422.31
2019-05-13T07:28:14.387Z,103414.83
2019-05-13T07:30:46.465Z,103419.36
2019-05-13T07:33:17.206Z,103411.73
2019-05-13T07:35:47.525Z,103409.56
2019-05-13T07:38:18.404Z,103407.95
2019-05-13T07:40:52.197Z,103405.84
2019-05-13T07:43:22.054Z,103414.30
2019-05-13T07:45:51.845Z,103423.25
2019-05-13T07:48:27.637Z,103426.87
2019-05-13T07:51:00.196Z,103422.48
2019-05-13T07:53:27.723Z,103422.45
2019-05-13T07:55:58.276Z,103427.94
2019-05-13T07:58:28.403Z,103431.08
2019-05-13T08:00:59.068Z,103435.68
2019-05-13T08:03:31.703Z,103439.00
2019-05-13T08:06:02.098Z,103437.95
2019-05-13T08:08:32.472Z,103431.01
2019-05-13T08:11:03.716Z,103427.35
2019-05-13T08:13:33.515Z,103434.97
2019-05-13T08:16:04.128Z,103432.86
2019-05-13T08:18:34.319Z,103427.85
2019-05-13T08:21:05.092Z,103435.68
2019-05-13T08:23:35.851Z,103430.61
2019-05-13T08:26:06.089Z,103431.26
2019-05-13T08:28:56.532Z,103425.66
2019-05-13T08:31:12.031Z,103429.91
2019-05-13T08:33:42.537Z,103432.16
2019-05-13T08:36:13.535Z,103425.25
2019-05-13T08:38:43.838Z,103427.21
2019-05-13T08:41:18.891Z,103422.85
2019-05-13T08:43:46.512Z,103417.98
2019-05-13T08:46:17.720Z,103425.52
2019-05-13T08:48:47.612Z,103427.11
2019-05-13T08:51:17.567Z,103433.13
2019-05-13T08:53:47.453Z,103432.00
2019-05-13T08:56:17.974Z,103427.03
2019-05-13T08:58:48.695Z,103431.17
2019-05-13T09:01:18.896Z,103438.12
2019-05-13T09:03:56.733Z,103436.24
2019-05-13T09:06:26.606Z,103436.64
2019-05-13T09:08:56.925Z,103445.13
2019-05-13T09:11:27.587Z,103441.14
2019-05-13T09:13:58.434Z,103449.38
2019-05-13T09:16:28.700Z,103440.33
2019-05-13T09:18:58.922Z,103425.86
2019-05-13T09:21:31.645Z,103429.80
2019-05-13T09:24:02.237Z,103434.66
2019-05-13T09:26:33.986Z,103433.78
2019-05-13T09:29:04.164Z,103420.78
2019-05-13T09:31:34.787Z,103431.17
2019-05-13T09:34:05.103Z,103431.92
2019-05-13T09:36:35.520Z,103427.53
2019-05-13T09:39:06.862Z,103430.73
2019-05-13T09:41:41.118Z,103434.75
2019-05-13T09:44:12.134Z,103435.48
2019-05-13T09:46:42.643Z,103439.95
2019-05-13T09:49:19.728Z,103334.27
2019-05-13T09:51:44.553Z,103447.05
2019-05-13T09:54:15.510Z,103445.54
2019-05-13T09:56:46.423Z,103449.06
2019-05-13T09:59:17.172Z,103455.09
2019-05-13T10:01:47.325Z,103461.89
2019-05-13T10:04:18.141Z,103456.38
2019-05-13T10:06:48.227Z,103463.68
2019-05-13T10:09:18.648Z,103459.87
2019-05-13T10:11:51.757Z,103470.54
2019-05-13T10:14:22.979Z,103469.65
2019-05-13T10:16:52.973Z,103467.26
2019-05-13T10:19:25.384Z,103468.36
2019-05-13T10:21:58.172Z,103468.67
2019-05-13T10:24:28.626Z,103471.47
2019-05-13T10:26:59.109Z,103469.02
2019-05-13T10:29:31.603Z,103471.41
2019-05-13T10:32:06.427Z,103473.81
2019-05-13T10:34:37.458Z,103476.64
2019-05-13T10:37:07.788Z,103479.50
2019-05-13T10:39:38.313Z,103472.38
2019-05-13T10:42:08.307Z,103481.13
2019-05-13T10:44:39.082Z,103475.55
2019-05-13T10:47:12.025Z,103474.36
2019-05-13T10:49:42.398Z,103484.09
2019-05-13T10:52:14.214Z,103486.83
2019-05-13T10:54:44.537Z,103485.52
2019-05-13T10:57:14.631Z,103485.45
2019-05-13T10:59:44.743Z,103487.77
2019-05-13T11:02:16.020Z,103490.05
2019-05-13T11:04:46.029Z,103490.59
2019-05-13T11:07:18.940Z,103487.62
2019-05-13T11:09:52.785Z,103487.70
2019-05-13T11:12:28.048Z,103494.17
2019-05-13T11:14:55.463Z,103489.36
2019-05-13T11:17:30.914Z,103499.38
2019-05-13T11:19:58.157Z,103500.91
2019-05-13T11:22:28.319Z,103499.09
2019-05-13T11:24:57.980Z,103499.05
2019-05-13T11:27:28.247Z,103490.64
2019-05-13T11:29:58.532Z,103496.92
2019-05-13T11:32:31.549Z,103492.86
2019-05-13T11:35:01.865Z,103491.96
2019-05-13T11:37:32.191Z,103489.70
2019-05-13T11:40:03.022Z,103482.08
2019-05-13T11:42:33.052Z,103483.94
2019-05-13T11:45:03.668Z,103481.06
2019-05-13T11:47:35.313Z,103477.80
2019-05-13T11:50:07.845Z,103479.73
2019-05-13T11:52:38.158Z,103467.36
2019-05-13T11:55:09.239Z,103469.20
2019-05-13T11:57:39.459Z,103472.19
2019-05-13T12:00:13.404Z,103469.39
2019-05-13T12:02:49.853Z,103473.64
2019-05-13T12:05:15.742Z,103465.84
2019-05-13T12:07:47.712Z,103472.47
2019-05-13T12:10:22.614Z,103470.56
2019-05-13T12:12:51.632Z,103473.05
2019-05-13T12:15:38.121Z,103475.22
2019-05-13T12:17:53.990Z,103474.70
2019-05-13T12:20:23.870Z,103491.11
2019-05-13T12:22:54.163Z,103485.41
2019-05-13T12:25:24.121Z,103475.89
2019-05-13T12:27:54.301Z,103475.91
2019-05-13T12:30:24.402Z,103477.48
2019-05-13T12:32:55.336Z,103477.37
2019-05-13T12:35:32.828Z,103487.66
2019-05-13T12:38:02.732Z,103485.42
2019-05-13T12:40:33.734Z,103468.41
2019-05-13T12:43:12.623Z,103472.50
2019-05-13T12:45:43.230Z,103480.36
2019-05-13T12:48:14.465Z,103473.52
2019-05-13T12:50:44.177Z,103475.38
2019-05-13T12:53:14.146Z,103479.74
2019-05-13T12:55:51.835Z,103482.47
2019-05-13T12:58:15.902Z,103487.28
2019-05-13T13:00:46.733Z,103487.34
2019-05-13T13:03:17.338Z,103471.02
2019-05-13T13:05:48.078Z,103486.58
2019-05-13T13:08:38.590Z,103472.86
2019-05-13T13:10:54.034Z,103478.71
2019-05-13T13:13:52.605Z,103470.22
2019-05-13T13:15:56.841Z,103467.84
2019-05-13T13:18:26.824Z,103483.01
2019-05-13T13:21:01.346Z,103480.69
2019-05-13T13:23:28.269Z,103475.62
2019-05-13T13:26:03.064Z,103484.27
2019-05-13T13:28:34.164Z,103478.77
2019-05-13T13:31:04.513Z,103474.30
2019-05-13T13:33:36.102Z,103467.13
2019-05-13T13:36:06.618Z,103472.31
2019-05-13T13:38:42.686Z,103481.86
2019-05-13T13:41:21.935Z,103470.83
2019-05-13T13:43:44.831Z,103467.86
2019-05-13T13:46:37.241Z,103479.38
2019-05-13T13:48:54.710Z,103485.61
2019-05-13T13:51:26.585Z,103486.03
2019-05-13T13:53:56.557Z,103479.60
2019-05-13T13:56:25.758Z,103478.52
2019-05-13T13:58:55.604Z,103481.09
2019-05-13T14:01:27.574Z,103480.49
2019-05-13T14:04:04.450Z,103483.16
2019-05-13T14:09:07.701Z,103477.45
2019-05-13T14:11:42.010Z,103473.10
2019-05-13T14:14:12.822Z,103476.67
2019-05-13T14:16:46.759Z,103469.58
2019-05-13T14:19:17.403Z,103482.36
2019-05-13T14:21:47.862Z,103478.11
2019-05-13T14:24:17.730Z,103490.96
2019-05-13T14:26:48.130Z,103490.92
2019-05-13T14:29:21.123Z,103483.34
2019-05-13T14:31:52.009Z,103491.23
2019-05-13T14:34:22.512Z,103490.39
2019-05-13T14:36:58.372Z,103494.70
2019-05-13T14:39:28.096Z,103488.99
2019-05-13T14:41:59.030Z,103493.11
2019-05-13T14:44:29.554Z,103489.91
2019-05-13T14:47:01.619Z,103501.25
2019-05-13T14:49:31.870Z,103501.25
2019-05-13T14:52:02.327Z,103500.97
2019-05-13T14:54:33.843Z,103511.18
2019-05-13T14:57:04.180Z,103507.73
2019-05-13T14:59:35.801Z,103497.20
2019-05-13T15:02:06.044Z,103498.69
2019-05-13T15:04:37.691Z,103498.25
2019-05-13T15:07:08.119Z,103494.11
2019-05-13T15:09:39.063Z,103497.34
2019-05-13T15:12:09.667Z,103494.95
2019-05-13T15:14:42.743Z,103506.11
2019-05-13T15:17:14.108Z,103495.38
2019-05-13T15:19:44.371Z,103499.48
2019-05-13T15:22:16.593Z,103494.94
2019-05-13T15:24:46.836Z,103494.55
2019-05-13T15:27:16.622Z,103486.93
2019-05-13T15:29:48.480Z,103494.36
2019-05-13T15:32:18.264Z,103488.80
2019-05-13T15:34:48.477Z,103497.49
2019-05-13T15:37:21.472Z,103499.19
2019-05-13T15:39:52.051Z,103500.91
2019-05-13T15:42:24.854Z,103502.91
2019-05-13T15:44:54.926Z,103509.86
2019-05-13T15:47:26.924Z,103502.64
2019-05-13T15:49:56.846Z,103507.09
2019-05-13T15:52:26.691Z,103509.02
2019-05-13T15:55:01.361Z,103516.70
2019-05-13T15:57:31.918Z,103515.41
2019-05-13T16:00:03.614Z,103514.45
2019-05-13T16:02:34.364Z,103508.34
2019-05-13T16:05:08.851Z,103502.52
2019-05-13T16:07:38.811Z,103501.37
2019-05-13T16:10:12.901Z,103508.44
2019-05-13T16:12:43.305Z,103517.10
2019-05-13T16:15:17.863Z,103522.06
2019-05-13T16:17:48.425Z,103519.45
2019-05-13T16:20:18.479Z,103515.67
2019-05-13T16:22:49.065Z,103509.95
2019-05-13T16:25:19.791Z,103509.05
2019-05-13T16:27:52.044Z,103511.80
2019-05-13T16:30:23.374Z,103508.66
2019-05-13T16:32:53.417Z,103507.31
2019-05-13T16:35:24.534Z,103516.27
2019-05-13T16:37:55.856Z,103519.54
2019-05-13T16:40:26.135Z,103513.94
2019-05-13T16:42:56.238Z,103509.88
2019-05-13T16:45:31.564Z,103508.47
2019-05-13T16:48:04.152Z,103521.30
2019-05-13T16:50:34.930Z,103517.94
2019-05-13T16:53:05.114Z,103522.09
2019-05-13T16:55:35.219Z,103524.34
2019-05-13T16:58:12.394Z,103520.53
2019-05-13T17:00:42.538Z,103528.62
2019-05-13T17:03:12.347Z,103530.42
2019-05-13T17:05:43.420Z,103533.58
2019-05-13T17:08:13.306Z,103541.33
2019-05-13T17:10:46.382Z,103533.48
2019-05-13T17:13:18.121Z,103539.09
2019-05-13T17:15:52.092Z,103535.42
2019-05-13T17:18:22.071Z,103538.91
2019-05-13T17:20:53.131Z,103545.20
2019-05-13T17:23:23.064Z,103546.95
2019-05-13T17:25:53.509Z,103555.51
2019-05-13T17:28:25.077Z,103551.00
2019-05-13T17:30:55.494Z,103549.79
2019-05-13T17:33:36.297Z,103552.63
2019-05-13T17:36:06.375Z,103561.61
2019-05-13T17:38:37.294Z,103560.64
2019-05-13T17:41:07.245Z,103567.11
2019-05-13T17:43:37.046Z,103570.34
2019-05-13T17:46:07.577Z,103580.53
2019-05-13T17:48:41.689Z,103573.17
2019-05-13T17:51:16.600Z,103571.66
2019-05-13T17:53:46.677Z,103568.75
2019-05-13T17:56:17.250Z,103566.50
2019-05-13T17:58:47.675Z,103571.03
2019-05-13T18:01:21.402Z,103573.64
2019-05-13T18:03:55.048Z,103570.85
2019-05-13T18:06:27.547Z,103580.62
2019-05-13T18:08:58.057Z,103577.91
2019-05-13T18:11:29.357Z,103579.05
2019-05-13T18:14:01.248Z,103581.59
2019-05-13T18:16:33.574Z,103586.09
2019-05-13T18:19:03.889Z,103585.84
2019-05-13T18:21:34.710Z,103588.31
2019-05-13T18:24:05.328Z,103588.36
2019-05-13T18:26:48.745Z,103588.03
2019-05-13T18:29:19.029Z,103596.52
2019-05-13T18:31:52.554Z,103607.56
2019-05-13T18:34:22.649Z,103604.56
2019-05-13T18:36:58.518Z,103617.30
2019-05-13T18:39:28.406Z,103622.35
2019-05-13T18:41:58.874Z,103620.23
2019-05-13T18:44:31.468Z,103623.41
2019-05-13T18:47:01.683Z,103623.52
2019-05-13T18:49:32.047Z,103622.81
2019-05-13T18:52:02.659Z,103628.41
2019-05-13T18:54:32.769Z,103628.06
2019-05-13T18:57:03.503Z,103630.44
2019-05-13T18:59:33.472Z,103623.42
2019-05-13T19:02:03.439Z,103630.06
2019-05-13T19:04:34.016Z,103626.03
2019-05-13T19:07:03.759Z,103633.88
2019-05-13T19:09:34.682Z,103636.73
2019-05-13T19:12:04.764Z,103641.91
2019-05-13T19:14:37.343Z,103644.39
2019-05-13T19:17:08.309Z,103644.23
2019-05-13T19:19:43.198Z,103646.02
2019-05-13T19:22:15.037Z,103644.95
2019-05-13T19:24:46.202Z,103645.81
2019-05-13T19:27:16.423Z,103655.23
2019-05-13T19:29:46.244Z,103653.81
2019-05-13T19:32:16.927Z,103659.42
2019-05-13T19:34:47.112Z,103656.53
2019-05-13T19:37:17.668Z,103658.02
2019-05-13T19:39:49.312Z,103657.86
2019-05-13T19:42:22.295Z,103660.78
2019-05-13T19:44:52.288Z,103581.02
2019-05-13T19:47:22.735Z,103658.81
2019-05-13T19:49:56.055Z,103661.03
2019-05-13T19:52:35.056Z,103657.45
2019-05-13T19:55:05.776Z,103665.23
2019-05-13T19:57:37.384Z,103671.71
2019-05-13T20:00:10.322Z,103672.08
2019-05-13T20:02:42.198Z,103676.00
2019-05-13T20:05:12.426Z,103674.59
2019-05-13T20:07:42.843Z,103679.37
2019-05-13T20:10:13.159Z,103675.78
2019-05-13T20:12:44.291Z,103674.45
2019-05-13T20:15:15.666Z,103673.27
2019-05-13T20:17:45.722Z,103679.24
2019-05-13T20:20:21.263Z,103679.78
2019-05-13T20:22:51.801Z,103678.42
2019-05-13T20:25:23.607Z,103687.77
2019-05-13T20:27:53.602Z,103695.92
2019-05-13T20:30:23.933Z,103693.20
2019-05-13T20:32:54.059Z,103693.16
2019-05-13T20:35:26.598Z,103687.47
2019-05-13T20:37:57.674Z,103690.34
2019-05-13T20:40:27.666Z,103695.06
2019-05-13T20:42:58.365Z,103692.02
2019-05-13T20:45:31.208Z,103699.48
2019-05-13T20:48:03.214Z,103692.30
2019-05-13T20:50:33.854Z,103699.71
2019-05-13T20:53:04.288Z,103699.80
2019-05-13T20:55:35.885Z,103699.07
2019-05-13T20:58:06.021Z,103701.84
2019-05-13T21:00:36.328Z,103709.38
2019-05-13T21:03:07.375Z,103708.16
2019-05-13T21:05:41.601Z,103712.47
2019-05-13T21:08:11.961Z,103717.02
2019-05-13T21:10:42.347Z,103721.95
2019-05-13T21:13:14.417Z,103720.23
2019-05-13T21:15:44.602Z,103717.59
2019-05-13T21:18:18.431Z,103722.86
2019-05-13T21:20:48.017Z,103726.22
2019-05-13T21:23:17.938Z,103727.26
2019-05-13T21:25:50.944Z,103728.57
2019-05-13T21:28:22.040Z,103721.25
2019-05-13T21:30:54.099Z,103719.33
2019-05-13T21:33:24.853Z,103714.42
2019-05-13T21:36:01.734Z,103722.78
2019-05-13T21:38:32.610Z,103712.61
2019-05-13T21:41:02.987Z,103710.53
2019-05-13T21:43:33.409Z,103712.25
2019-05-13T21:46:03.150Z,103710.75
2019-05-13T21:48:34.196Z,103706.25
2019-05-13T21:51:05.917Z,103711.16
2019-05-13T21:53:36.621Z,103717.13
2019-05-13T21:56:06.777Z,103714.08
2019-05-13T21:58:36.983Z,103713.43
2019-05-13T22:01:06.938Z,103708.91
2019-05-13T22:03:45.294Z,103707.30
2019-05-13T22:06:15.449Z,103706.66
2019-05-13T22:08:46.616Z,103725.61
2019-05-13T22:11:17.116Z,103721.37
2019-05-13T22:13:47.657Z,103713.27
2019-05-13T22:16:18.077Z,103718.86
2019-05-13T22:18:47.967Z,103715.11
2019-05-13T22:21:18.634Z,103716.00
2019-05-13T22:23:48.954Z,103717.70
2019-05-13T22:26:18.898Z,103716.73
2019-05-13T22:28:51.112Z,103724.61
2019-05-13T22:31:22.246Z,103729.02
2019-05-13T22:33:53.586Z,103665.11
2019-05-13T22:36:25.059Z,103721.87
2019-05-13T22:38:55.515Z,103721.34
2019-05-13T22:41:25.881Z,103725.63
2019-05-13T22:43:58.905Z,103723.60
2019-05-13T22:46:32.185Z,103724.35
2019-05-13T22:49:03.766Z,103728.64
2019-05-13T22:51:34.161Z,103730.92
2019-05-13T22:54:05.206Z,103723.89
2019-05-13T22:56:37.390Z,103730.52
2019-05-13T22:59:09.350Z,103718.89
2019-05-13T23:01:41.829Z,103718.89
2019-05-13T23:04:15.294Z,103715.22
2019-05-13T23:06:46.450Z,103717.87
2019-05-13T23:09:16.367Z,103711.83
2019-05-13T23:11:46.566Z,103715.13
2019-05-13T23:14:16.423Z,103721.47
2019-05-13T23:16:48.449Z,103726.11
2019-05-13T23:19:21.525Z,103715.09
2019-05-13T23:21:51.939Z,103715.09
2019-05-13T23:24:24.355Z,103717.23
2019-05-13T23:26:55.929Z,103721.81
2019-05-13T23:29:26.508Z,103721.81
2019-05-13T23:32:01.300Z,103715.95
2019-05-13T23:34:32.242Z,103713.84
2019-05-13T23:37:02.217Z,103732.21
2019-05-13T23:39:33.541Z,103728.58
2019-05-13T23:42:04.390Z,103727.83
2019-05-13T23:44:35.536Z,103725.14
2019-05-13T23:47:05.851Z,103728.09
2019-05-13T23:49:38.397Z,103731.20
2019-05-13T23:52:11.669Z,103725.94
2019-05-13T23:54:43.052Z,103729.55
2019-05-13T23:57:13.520Z,103724.91
2019-05-13T23:59:43.734Z,103725.95
